メインページ
METAR-TAF:

METAR-TAF

空港 :

キング・アブドゥルアズィーズ国際空港

ジッダ, サウジアラビア

緯度: 21-42N, 経度: 039-11E, 海抜: 15m

現時点の気象観測

当レポートは48分前の10:00(UTC)に作成
南/南西の風 18kt
気温 34°C
湿度 47%
気圧 1007 hPa
視程: 8000m

METAR: OEJN 211000Z 20018KT 8000 NSC 34/21 Q1007 NOSIG

時間: 13:48 (10:48 UTC)

予報

当レポートは5時間48分前の05:00(UTC)に作成
予報は21日の 06時(UTC)から 22日の 12時(UTC)まで有効
西の風 14kt
視程10km以上
高度4000ftの雲はほとんどない
高度10000ftの雲は散在している
21日の 06時(UTC)から 21日の 16時(UTC)まで一時的に
視程: 6000m
高度4000ftの雲は散在している
確率 30% :
21日の 10時(UTC)から 21日の 16時(UTC)まで一時的に
変向風 20kt
視程: 2000m
高度3500ftの雲はほとんどない, 積乱雲.
風塵, 激しい雷雨

TAF: OEJN 210500Z 2106/2212 26014KT 9999 FEW040 SCT100 TEMPO 2106/2116 6000 SCT040 PROB30 TEMPO 2110/2116 VRB20KT 2000 BLDU TS FEW035CB

4,000以上の空港の気象観測と天気予報(METAR報とTAF報)

利用可能な観測所は地図上に黄色い丸と赤い丸で示す。

丸の上にカーソルを重ねると観測所名を参照できる。

次にクリックすると気象観測と天気予報を参照できる。

マップの切り替え:黒色「×」印の緑ボタンをクリックして拡大、「-」印の緑ボタンをクリックして縮小、緑色の三角印をクリックして隣りの地図に切り替え


METAR-TAF: